sensor_id;sensor_type;location;lat;lon;timestamp;temperature;humidity
18218;DHT22;9234;49.344;11.120;2023-07-02T00:00:27;18.50;99.90
18218;DHT22;9234;49.344;11.120;2023-07-02T00:02:55;18.50;99.90
18218;DHT22;9234;49.344;11.120;2023-07-02T00:05:24;18.50;99.90
18218;DHT22;9234;49.344;11.120;2023-07-02T00:07:52;18.50;99.90
18218;DHT22;9234;49.344;11.120;2023-07-02T00:10:21;18.50;99.90
18218;DHT22;9234;49.344;11.120;2023-07-02T00:12:50;18.50;99.90
18218;DHT22;9234;49.344;11.120;2023-07-02T00:15:19;18.50;99.90
18218;DHT22;9234;49.344;11.120;2023-07-02T00:17:47;18.50;99.90
18218;DHT22;9234;49.344;11.120;2023-07-02T00:20:15;18.50;99.90
18218;DHT22;9234;49.344;11.120;2023-07-02T00:22:44;18.50;99.90
18218;DHT22;9234;49.344;11.120;2023-07-02T00:25:13;18.40;99.90
18218;DHT22;9234;49.344;11.120;2023-07-02T00:27:42;18.40;99.90
18218;DHT22;9234;49.344;11.120;2023-07-02T00:30:12;18.40;99.90
18218;DHT22;9234;49.344;11.120;2023-07-02T00:32:41;18.30;99.90
18218;DHT22;9234;49.344;11.120;2023-07-02T00:35:11;18.30;99.90
18218;DHT22;9234;49.344;11.120;2023-07-02T00:37:39;18.20;99.90
18218;DHT22;9234;49.344;11.120;2023-07-02T00:40:09;18.10;99.90
18218;DHT22;9234;49.344;11.120;2023-07-02T00:42:38;18.10;99.90
18218;DHT22;9234;49.344;11.120;2023-07-02T00:45:07;18.10;99.90
18218;DHT22;9234;49.344;11.120;2023-07-02T00:47:38;18.10;99.90
18218;DHT22;9234;49.344;11.120;2023-07-02T00:50:06;18.10;99.90
18218;DHT22;9234;49.344;11.120;2023-07-02T00:52:36;18.10;99.90
18218;DHT22;9234;49.344;11.120;2023-07-02T00:55:05;18.10;99.90
18218;DHT22;9234;49.344;11.120;2023-07-02T00:57:34;18.10;99.90
18218;DHT22;9234;49.344;11.120;2023-07-02T01:00:03;18.20;99.90
18218;DHT22;9234;49.344;11.120;2023-07-02T01:02:32;18.20;99.90
18218;DHT22;9234;49.344;11.120;2023-07-02T01:05:01;18.20;99.90
18218;DHT22;9234;49.344;11.120;2023-07-02T01:07:30;18.20;99.90
18218;DHT22;9234;49.344;11.120;2023-07-02T01:09:58;18.20;99.90
18218;DHT22;9234;49.344;11.120;2023-07-02T01:12:27;18.20;99.90
18218;DHT22;9234;49.344;11.120;2023-07-02T01:14:59;18.20;99.90
18218;DHT22;9234;49.344;11.120;2023-07-02T01:17:31;18.20;99.90
18218;DHT22;9234;49.344;11.120;2023-07-02T01:20:11;18.20;99.90
18218;DHT22;9234;49.344;11.120;2023-07-02T01:22:40;18.20;99.90
18218;DHT22;9234;49.344;11.120;2023-07-02T01:25:08;18.20;99.90
18218;DHT22;9234;49.344;11.120;2023-07-02T01:27:37;18.20;99.90
18218;DHT22;9234;49.344;11.120;2023-07-02T01:30:07;18.20;99.90
18218;DHT22;9234;49.344;11.120;2023-07-02T01:32:38;18.20;99.90
18218;DHT22;9234;49.344;11.120;2023-07-02T01:35:07;18.20;99.90
18218;DHT22;9234;49.344;11.120;2023-07-02T01:37:37;18.20;99.90
18218;DHT22;9234;49.344;11.120;2023-07-02T01:40:07;18.20;99.90
18218;DHT22;9234;49.344;11.120;2023-07-02T01:42:36;18.20;99.90
18218;DHT22;9234;49.344;11.120;2023-07-02T01:45:06;18.20;99.90
18218;DHT22;9234;49.344;11.120;2023-07-02T01:47:35;18.20;99.90
18218;DHT22;9234;49.344;11.120;2023-07-02T01:50:05;18.20;99.90
18218;DHT22;9234;49.344;11.120;2023-07-02T01:52:35;18.20;99.90
18218;DHT22;9234;49.344;11.120;2023-07-02T01:55:04;18.20;99.90
18218;DHT22;9234;49.344;11.120;2023-07-02T01:57:33;18.20;99.90
18218;DHT22;9234;49.344;11.120;2023-07-02T02:00:01;18.20;99.90
18218;DHT22;9234;49.344;11.120;2023-07-02T02:02:42;18.20;99.90
18218;DHT22;9234;49.344;11.120;2023-07-02T02:05:11;18.20;99.90
18218;DHT22;9234;49.344;11.120;2023-07-02T02:07:41;18.20;99.90
18218;DHT22;9234;49.344;11.120;2023-07-02T02:10:10;18.20;99.90
18218;DHT22;9234;49.344;11.120;2023-07-02T02:12:38;18.20;99.90
18218;DHT22;9234;49.344;11.120;2023-07-02T02:15:07;18.10;99.90
18218;DHT22;9234;49.344;11.120;2023-07-02T02:17:35;18.10;99.90
18218;DHT22;9234;49.344;11.120;2023-07-02T02:20:05;18.20;99.90
18218;DHT22;9234;49.344;11.120;2023-07-02T02:22:35;18.10;99.90
18218;DHT22;9234;49.344;11.120;2023-07-02T02:25:06;18.10;99.90
18218;DHT22;9234;49.344;11.120;2023-07-02T02:27:35;18.10;99.90
18218;DHT22;9234;49.344;11.120;2023-07-02T02:30:05;18.10;99.90
18218;DHT22;9234;49.344;11.120;2023-07-02T02:32:35;18.00;99.90
18218;DHT22;9234;49.344;11.120;2023-07-02T02:35:08;18.00;99.90
18218;DHT22;9234;49.344;11.120;2023-07-02T02:37:38;18.00;99.90
18218;DHT22;9234;49.344;11.120;2023-07-02T02:40:10;17.90;99.90
18218;DHT22;9234;49.344;11.120;2023-07-02T02:42:40;17.90;99.90
18218;DHT22;9234;49.344;11.120;2023-07-02T02:45:09;17.80;99.90
18218;DHT22;9234;49.344;11.120;2023-07-02T02:47:37;17.80;99.90
18218;DHT22;9234;49.344;11.120;2023-07-02T02:50:07;17.80;99.90
18218;DHT22;9234;49.344;11.120;2023-07-02T02:52:36;17.70;99.90
18218;DHT22;9234;49.344;11.120;2023-07-02T02:55:06;17.70;99.90
18218;DHT22;9234;49.344;11.120;2023-07-02T02:57:37;17.60;99.90
18218;DHT22;9234;49.344;11.120;2023-07-02T03:00:06;17.50;99.90
18218;DHT22;9234;49.344;11.120;2023-07-02T03:02:36;17.50;99.90
18218;DHT22;9234;49.344;11.120;2023-07-02T03:05:05;17.40;99.90
18218;DHT22;9234;49.344;11.120;2023-07-02T03:07:34;17.30;99.90
18218;DHT22;9234;49.344;11.120;2023-07-02T03:10:03;17.30;99.90
18218;DHT22;9234;49.344;11.120;2023-07-02T03:12:33;17.20;99.90
18218;DHT22;9234;49.344;11.120;2023-07-02T03:15:02;17.20;99.90
18218;DHT22;9234;49.344;11.120;2023-07-02T03:17:30;17.10;99.90
18218;DHT22;9234;49.344;11.120;2023-07-02T03:19:59;17.10;99.90
18218;DHT22;9234;49.344;11.120;2023-07-02T03:22:27;17.10;99.90
18218;DHT22;9234;49.344;11.120;2023-07-02T03:24:55;17.00;99.90
18218;DHT22;9234;49.344;11.120;2023-07-02T03:27:23;17.00;99.90
18218;DHT22;9234;49.344;11.120;2023-07-02T03:29:53;16.90;99.90
18218;DHT22;9234;49.344;11.120;2023-07-02T03:32:22;16.90;99.90
18218;DHT22;9234;49.344;11.120;2023-07-02T03:34:50;16.90;99.90
18218;DHT22;9234;49.344;11.120;2023-07-02T03:37:18;16.90;99.90
18218;DHT22;9234;49.344;11.120;2023-07-02T03:39:47;16.90;99.90
18218;DHT22;9234;49.344;11.120;2023-07-02T03:42:15;16.90;99.90
18218;DHT22;9234;49.344;11.120;2023-07-02T03:44:44;16.90;99.90
18218;DHT22;9234;49.344;11.120;2023-07-02T03:47:13;16.90;99.90
18218;DHT22;9234;49.344;11.120;2023-07-02T03:49:43;16.90;99.90
18218;DHT22;9234;49.344;11.120;2023-07-02T03:52:11;16.90;99.90
18218;DHT22;9234;49.344;11.120;2023-07-02T03:54:39;17.10;99.90
18218;DHT22;9234;49.344;11.120;2023-07-02T03:57:07;17.00;99.90
18218;DHT22;9234;49.344;11.120;2023-07-02T03:59:36;17.00;99.90
18218;DHT22;9234;49.344;11.120;2023-07-02T04:02:05;17.00;99.90
18218;DHT22;9234;49.344;11.120;2023-07-02T04:04:35;17.00;99.90
18218;DHT22;9234;49.344;11.120;2023-07-02T04:07:03;17.00;99.90
18218;DHT22;9234;49.344;11.120;2023-07-02T04:09:32;17.00;99.90
18218;DHT22;9234;49.344;11.120;2023-07-02T04:12:01;17.00;99.90
18218;DHT22;9234;49.344;11.120;2023-07-02T04:14:29;17.00;99.90
18218;DHT22;9234;49.344;11.120;2023-07-02T04:16:57;17.00;99.90
18218;DHT22;9234;49.344;11.120;2023-07-02T04:19:25;17.00;99.90
18218;DHT22;9234;49.344;11.120;2023-07-02T04:21:55;17.10;99.90
18218;DHT22;9234;49.344;11.120;2023-07-02T04:24:23;17.10;99.90
18218;DHT22;9234;49.344;11.120;2023-07-02T04:26:53;17.10;99.90
18218;DHT22;9234;49.344;11.120;2023-07-02T04:29:41;17.10;99.90
18218;DHT22;9234;49.344;11.120;2023-07-02T04:32:09;17.10;99.90
18218;DHT22;9234;49.344;11.120;2023-07-02T04:34:37;17.10;99.90
18218;DHT22;9234;49.344;11.120;2023-07-02T04:37:09;17.10;99.90
18218;DHT22;9234;49.344;11.120;2023-07-02T04:39:37;17.10;99.90
18218;DHT22;9234;49.344;11.120;2023-07-02T04:42:06;17.20;99.90
18218;DHT22;9234;49.344;11.120;2023-07-02T04:44:36;17.20;99.90
18218;DHT22;9234;49.344;11.120;2023-07-02T04:47:05;17.20;99.90
18218;DHT22;9234;49.344;11.120;2023-07-02T04:49:33;17.30;99.90
18218;DHT22;9234;49.344;11.120;2023-07-02T04:52:01;17.30;99.90
18218;DHT22;9234;49.344;11.120;2023-07-02T04:54:31;17.30;99.90
18218;DHT22;9234;49.344;11.120;2023-07-02T04:56:59;17.30;99.90
18218;DHT22;9234;49.344;11.120;2023-07-02T04:59:27;17.30;99.90
18218;DHT22;9234;49.344;11.120;2023-07-02T05:01:55;17.30;99.90
18218;DHT22;9234;49.344;11.120;2023-07-02T05:04:24;17.40;99.90
18218;DHT22;9234;49.344;11.120;2023-07-02T05:06:52;17.40;99.90
18218;DHT22;9234;49.344;11.120;2023-07-02T05:09:21;17.40;99.90
18218;DHT22;9234;49.344;11.120;2023-07-02T05:11:50;17.40;99.90
18218;DHT22;9234;49.344;11.120;2023-07-02T05:14:19;17.40;99.90
18218;DHT22;9234;49.344;11.120;2023-07-02T05:16:47;17.40;99.90
18218;DHT22;9234;49.344;11.120;2023-07-02T05:19:15;17.40;99.90
18218;DHT22;9234;49.344;11.120;2023-07-02T05:21:43;17.30;99.90
18218;DHT22;9234;49.344;11.120;2023-07-02T05:24:12;17.40;99.90
18218;DHT22;9234;49.344;11.120;2023-07-02T05:26:40;17.40;99.90
18218;DHT22;9234;49.344;11.120;2023-07-02T05:29:10;17.40;99.90
18218;DHT22;9234;49.344;11.120;2023-07-02T05:31:38;17.40;99.90
18218;DHT22;9234;49.344;11.120;2023-07-02T05:34:06;17.40;99.90
18218;DHT22;9234;49.344;11.120;2023-07-02T05:36:35;17.50;99.90
18218;DHT22;9234;49.344;11.120;2023-07-02T05:39:03;17.50;99.90
18218;DHT22;9234;49.344;11.120;2023-07-02T05:41:31;17.50;99.90
18218;DHT22;9234;49.344;11.120;2023-07-02T05:43:59;17.60;99.90
18218;DHT22;9234;49.344;11.120;2023-07-02T05:46:29;17.60;99.90
18218;DHT22;9234;49.344;11.120;2023-07-02T05:48:57;17.60;99.90
18218;DHT22;9234;49.344;11.120;2023-07-02T05:51:26;17.60;99.90
18218;DHT22;9234;49.344;11.120;2023-07-02T05:53:55;17.70;99.90
18218;DHT22;9234;49.344;11.120;2023-07-02T05:56:23;17.70;99.90
18218;DHT22;9234;49.344;11.120;2023-07-02T05:58:51;17.70;99.90
18218;DHT22;9234;49.344;11.120;2023-07-02T06:01:19;17.70;99.90
18218;DHT22;9234;49.344;11.120;2023-07-02T06:03:53;17.80;99.90
18218;DHT22;9234;49.344;11.120;2023-07-02T06:06:22;17.80;99.90
18218;DHT22;9234;49.344;11.120;2023-07-02T06:08:51;17.80;99.90
18218;DHT22;9234;49.344;11.120;2023-07-02T06:11:19;17.80;99.90
18218;DHT22;9234;49.344;11.120;2023-07-02T06:13:47;17.90;99.90
18218;DHT22;9234;49.344;11.120;2023-07-02T06:16:16;18.00;99.90
18218;DHT22;9234;49.344;11.120;2023-07-02T06:18:44;18.10;99.90
18218;DHT22;9234;49.344;11.120;2023-07-02T06:21:14;18.20;99.90
18218;DHT22;9234;49.344;11.120;2023-07-02T06:23:43;18.20;99.90
18218;DHT22;9234;49.344;11.120;2023-07-02T06:26:11;18.20;99.90
18218;DHT22;9234;49.344;11.120;2023-07-02T06:28:40;18.30;99.90
18218;DHT22;9234;49.344;11.120;2023-07-02T06:31:08;18.30;99.90
18218;DHT22;9234;49.344;11.120;2023-07-02T06:33:39;18.30;99.90
18218;DHT22;9234;49.344;11.120;2023-07-02T06:36:08;18.30;99.90
18218;DHT22;9234;49.344;11.120;2023-07-02T06:38:41;18.30;99.90
18218;DHT22;9234;49.344;11.120;2023-07-02T06:41:09;18.30;99.90
18218;DHT22;9234;49.344;11.120;2023-07-02T06:43:37;18.30;99.90
18218;DHT22;9234;49.344;11.120;2023-07-02T06:46:06;18.40;99.90
18218;DHT22;9234;49.344;11.120;2023-07-02T06:48:34;18.50;99.90
18218;DHT22;9234;49.344;11.120;2023-07-02T06:51:02;18.60;99.90
18218;DHT22;9234;49.344;11.120;2023-07-02T06:53:31;18.60;99.90
18218;DHT22;9234;49.344;11.120;2023-07-02T06:56:00;18.70;99.20
18218;DHT22;9234;49.344;11.120;2023-07-02T06:58:30;18.70;96.90
18218;DHT22;9234;49.344;11.120;2023-07-02T07:00:58;18.60;96.30
18218;DHT22;9234;49.344;11.120;2023-07-02T07:03:26;18.60;96.50
18218;DHT22;9234;49.344;11.120;2023-07-02T07:05:55;18.70;96.30
18218;DHT22;9234;49.344;11.120;2023-07-02T07:08:23;18.70;96.20
18218;DHT22;9234;49.344;11.120;2023-07-02T07:10:51;18.90;95.00
18218;DHT22;9234;49.344;11.120;2023-07-02T07:13:21;18.90;95.20
18218;DHT22;9234;49.344;11.120;2023-07-02T07:15:49;19.00;95.00
18218;DHT22;9234;49.344;11.120;2023-07-02T07:18:17;19.00;94.80
18218;DHT22;9234;49.344;11.120;2023-07-02T07:20:46;19.00;94.80
18218;DHT22;9234;49.344;11.120;2023-07-02T07:23:15;19.00;95.40
18218;DHT22;9234;49.344;11.120;2023-07-02T07:25:44;19.00;95.70
18218;DHT22;9234;49.344;11.120;2023-07-02T07:28:12;19.10;95.10
18218;DHT22;9234;49.344;11.120;2023-07-02T07:30:44;19.10;95.20
18218;DHT22;9234;49.344;11.120;2023-07-02T07:33:13;19.20;95.40
18218;DHT22;9234;49.344;11.120;2023-07-02T07:35:41;19.40;95.00
18218;DHT22;9234;49.344;11.120;2023-07-02T07:38:09;19.50;95.00
18218;DHT22;9234;49.344;11.120;2023-07-02T07:40:38;19.70;93.90
18218;DHT22;9234;49.344;11.120;2023-07-02T07:43:06;19.70;93.50
18218;DHT22;9234;49.344;11.120;2023-07-02T07:45:34;19.80;93.70
18218;DHT22;9234;49.344;11.120;2023-07-02T07:48:05;19.90;93.70
18218;DHT22;9234;49.344;11.120;2023-07-02T07:50:33;19.90;92.90
18218;DHT22;9234;49.344;11.120;2023-07-02T07:53:01;19.90;93.50
18218;DHT22;9234;49.344;11.120;2023-07-02T07:55:30;20.00;93.20
18218;DHT22;9234;49.344;11.120;2023-07-02T07:57:58;20.10;92.10
18218;DHT22;9234;49.344;11.120;2023-07-02T08:00:26;20.10;91.30
18218;DHT22;9234;49.344;11.120;2023-07-02T08:02:54;20.10;91.10
18218;DHT22;9234;49.344;11.120;2023-07-02T08:05:24;20.10;91.10
18218;DHT22;9234;49.344;11.120;2023-07-02T08:07:53;20.20;91.20
18218;DHT22;9234;49.344;11.120;2023-07-02T08:10:21;20.10;91.20
18218;DHT22;9234;49.344;11.120;2023-07-02T08:12:50;20.00;90.90
18218;DHT22;9234;49.344;11.120;2023-07-02T08:15:19;20.00;91.30
18218;DHT22;9234;49.344;11.120;2023-07-02T08:17:47;20.00;91.70
18218;DHT22;9234;49.344;11.120;2023-07-02T08:20:15;20.00;91.00
18218;DHT22;9234;49.344;11.120;2023-07-02T08:22:45;20.10;91.00
18218;DHT22;9234;49.344;11.120;2023-07-02T08:25:13;20.20;90.50
18218;DHT22;9234;49.344;11.120;2023-07-02T08:27:41;20.30;90.50
18218;DHT22;9234;49.344;11.120;2023-07-02T08:30:10;20.50;90.00
18218;DHT22;9234;49.344;11.120;2023-07-02T08:32:39;20.60;87.90
18218;DHT22;9234;49.344;11.120;2023-07-02T08:35:07;20.50;88.60
18218;DHT22;9234;49.344;11.120;2023-07-02T08:37:36;20.50;86.60
18218;DHT22;9234;49.344;11.120;2023-07-02T08:40:17;20.60;86.90
18218;DHT22;9234;49.344;11.120;2023-07-02T08:42:46;20.70;86.30
18218;DHT22;9234;49.344;11.120;2023-07-02T08:45:15;20.70;85.10
18218;DHT22;9234;49.344;11.120;2023-07-02T08:47:44;20.90;85.30
18218;DHT22;9234;49.344;11.120;2023-07-02T08:50:13;21.00;83.10
18218;DHT22;9234;49.344;11.120;2023-07-02T08:52:42;20.90;82.80
18218;DHT22;9234;49.344;11.120;2023-07-02T08:55:11;20.80;84.00
18218;DHT22;9234;49.344;11.120;2023-07-02T08:57:48;20.80;83.00
18218;DHT22;9234;49.344;11.120;2023-07-02T09:00:22;21.00;82.70
18218;DHT22;9234;49.344;11.120;2023-07-02T09:02:51;21.20;82.00
18218;DHT22;9234;49.344;11.120;2023-07-02T09:05:19;21.40;79.70
18218;DHT22;9234;49.344;11.120;2023-07-02T09:07:48;21.40;77.60
18218;DHT22;9234;49.344;11.120;2023-07-02T09:10:29;21.50;78.50
18218;DHT22;9234;49.344;11.120;2023-07-02T09:13:06;21.50;79.30
18218;DHT22;9234;49.344;11.120;2023-07-02T09:15:37;21.50;81.70
18218;DHT22;9234;49.344;11.120;2023-07-02T09:18:16;21.50;78.40
18218;DHT22;9234;49.344;11.120;2023-07-02T09:20:46;21.70;78.20
18218;DHT22;9234;49.344;11.120;2023-07-02T09:23:18;21.90;78.10
18218;DHT22;9234;49.344;11.120;2023-07-02T09:25:46;22.00;75.70
18218;DHT22;9234;49.344;11.120;2023-07-02T09:28:17;21.90;76.70
18218;DHT22;9234;49.344;11.120;2023-07-02T09:30:52;21.90;76.10
18218;DHT22;9234;49.344;11.120;2023-07-02T09:33:23;21.80;78.20
18218;DHT22;9234;49.344;11.120;2023-07-02T09:35:52;21.90;77.80
18218;DHT22;9234;49.344;11.120;2023-07-02T09:38:21;22.00;75.10
18218;DHT22;9234;49.344;11.120;2023-07-02T09:40:50;22.00;76.20
18218;DHT22;9234;49.344;11.120;2023-07-02T09:43:22;22.00;75.60
18218;DHT22;9234;49.344;11.120;2023-07-02T09:45:54;21.90;75.30
18218;DHT22;9234;49.344;11.120;2023-07-02T09:48:24;22.00;76.30
18218;DHT22;9234;49.344;11.120;2023-07-02T09:50:58;22.00;75.90
18218;DHT22;9234;49.344;11.120;2023-07-02T09:53:28;22.20;75.70
18218;DHT22;9234;49.344;11.120;2023-07-02T09:55:57;22.30;74.10
18218;DHT22;9234;49.344;11.120;2023-07-02T09:58:26;22.40;75.70
18218;DHT22;9234;49.344;11.120;2023-07-02T10:00:58;22.50;74.80
18218;DHT22;9234;49.344;11.120;2023-07-02T10:03:30;22.50;73.70
18218;DHT22;9234;49.344;11.120;2023-07-02T10:06:05;22.50;74.00
18218;DHT22;9234;49.344;11.120;2023-07-02T10:08:35;22.50;73.70
18218;DHT22;9234;49.344;11.120;2023-07-02T10:11:11;22.50;74.00
18218;DHT22;9234;49.344;11.120;2023-07-02T10:13:42;22.50;74.50
18218;DHT22;9234;49.344;11.120;2023-07-02T10:16:10;22.60;74.20
18218;DHT22;9234;49.344;11.120;2023-07-02T10:18:39;22.60;73.80
18218;DHT22;9234;49.344;11.120;2023-07-02T10:21:14;22.60;73.20
18218;DHT22;9234;49.344;11.120;2023-07-02T10:23:44;22.80;73.80
18218;DHT22;9234;49.344;11.120;2023-07-02T10:26:14;23.10;73.10
18218;DHT22;9234;49.344;11.120;2023-07-02T10:28:57;23.30;71.60
18218;DHT22;9234;49.344;11.120;2023-07-02T10:31:26;23.40;71.80
18218;DHT22;9234;49.344;11.120;2023-07-02T10:33:54;23.60;69.40
18218;DHT22;9234;49.344;11.120;2023-07-02T10:36:24;23.90;70.30
18218;DHT22;9234;49.344;11.120;2023-07-02T10:38:53;24.40;70.40
18218;DHT22;9234;49.344;11.120;2023-07-02T10:41:25;24.70;65.00
18218;DHT22;9234;49.344;11.120;2023-07-02T10:44:04;25.00;61.90
18218;DHT22;9234;49.344;11.120;2023-07-02T10:46:33;24.90;60.40
18218;DHT22;9234;49.344;11.120;2023-07-02T10:49:03;24.70;60.50
18218;DHT22;9234;49.344;11.120;2023-07-02T10:51:33;24.60;59.40
18218;DHT22;9234;49.344;11.120;2023-07-02T10:54:03;24.30;60.50
18218;DHT22;9234;49.344;11.120;2023-07-02T10:56:32;24.30;61.20
18218;DHT22;9234;49.344;11.120;2023-07-02T10:59:01;24.50;60.50
18218;DHT22;9234;49.344;11.120;2023-07-02T11:01:31;24.70;59.50
18218;DHT22;9234;49.344;11.120;2023-07-02T11:04:00;24.70;59.70
18218;DHT22;9234;49.344;11.120;2023-07-02T11:06:32;24.90;60.20
18218;DHT22;9234;49.344;11.120;2023-07-02T11:09:00;25.00;59.80
18218;DHT22;9234;49.344;11.120;2023-07-02T11:11:30;24.90;59.10
18218;DHT22;9234;49.344;11.120;2023-07-02T11:13:58;25.00;59.20
18218;DHT22;9234;49.344;11.120;2023-07-02T11:16:28;25.30;58.00
18218;DHT22;9234;49.344;11.120;2023-07-02T11:19:06;25.50;57.40
18218;DHT22;9234;49.344;11.120;2023-07-02T11:21:37;25.50;57.80
18218;DHT22;9234;49.344;11.120;2023-07-02T11:24:06;25.60;58.30
18218;DHT22;9234;49.344;11.120;2023-07-02T11:26:36;25.90;57.60
18218;DHT22;9234;49.344;11.120;2023-07-02T11:29:11;25.90;56.40
18218;DHT22;9234;49.344;11.120;2023-07-02T11:31:41;25.80;55.30
18218;DHT22;9234;49.344;11.120;2023-07-02T11:34:12;25.40;55.90
18218;DHT22;9234;49.344;11.120;2023-07-02T11:36:47;25.40;57.30
18218;DHT22;9234;49.344;11.120;2023-07-02T11:39:16;25.50;57.00
18218;DHT22;9234;49.344;11.120;2023-07-02T11:41:47;25.60;56.70
18218;DHT22;9234;49.344;11.120;2023-07-02T11:44:15;25.70;56.80
18218;DHT22;9234;49.344;11.120;2023-07-02T11:46:45;25.90;56.80
18218;DHT22;9234;49.344;11.120;2023-07-02T11:49:14;25.90;55.50
18218;DHT22;9234;49.344;11.120;2023-07-02T11:51:43;26.20;56.90
18218;DHT22;9234;49.344;11.120;2023-07-02T11:54:16;26.40;56.20
18218;DHT22;9234;49.344;11.120;2023-07-02T11:56:45;26.30;54.30
18218;DHT22;9234;49.344;11.120;2023-07-02T11:59:14;25.80;54.80
18218;DHT22;9234;49.344;11.120;2023-07-02T12:01:42;25.60;57.20
18218;DHT22;9234;49.344;11.120;2023-07-02T12:04:12;25.70;57.40
18218;DHT22;9234;49.344;11.120;2023-07-02T12:06:41;25.60;56.90
18218;DHT22;9234;49.344;11.120;2023-07-02T12:09:09;25.40;56.80
18218;DHT22;9234;49.344;11.120;2023-07-02T12:11:37;25.00;56.20
18218;DHT22;9234;49.344;11.120;2023-07-02T12:14:06;24.80;57.60
18218;DHT22;9234;49.344;11.120;2023-07-02T12:16:34;24.90;57.90
18218;DHT22;9234;49.344;11.120;2023-07-02T12:19:03;25.00;58.00
18218;DHT22;9234;49.344;11.120;2023-07-02T12:21:33;25.10;58.30
18218;DHT22;9234;49.344;11.120;2023-07-02T12:24:02;25.20;57.80
18218;DHT22;9234;49.344;11.120;2023-07-02T12:26:35;25.30;58.00
18218;DHT22;9234;49.344;11.120;2023-07-02T12:29:03;25.30;58.10
18218;DHT22;9234;49.344;11.120;2023-07-02T12:31:31;25.20;57.10
18218;DHT22;9234;49.344;11.120;2023-07-02T12:34:00;25.40;57.70
18218;DHT22;9234;49.344;11.120;2023-07-02T12:36:29;25.60;55.40
18218;DHT22;9234;49.344;11.120;2023-07-02T12:38:59;25.60;55.40
18218;DHT22;9234;49.344;11.120;2023-07-02T12:41:27;25.80;55.70
18218;DHT22;9234;49.344;11.120;2023-07-02T12:43:56;25.80;53.60
18218;DHT22;9234;49.344;11.120;2023-07-02T12:46:24;25.80;54.50
18218;DHT22;9234;49.344;11.120;2023-07-02T12:48:53;25.70;54.70
18218;DHT22;9234;49.344;11.120;2023-07-02T12:51:21;25.70;55.80
18218;DHT22;9234;49.344;11.120;2023-07-02T12:53:49;25.60;54.60
18218;DHT22;9234;49.344;11.120;2023-07-02T12:56:19;25.60;54.70
18218;DHT22;9234;49.344;11.120;2023-07-02T12:58:47;26.00;55.10
18218;DHT22;9234;49.344;11.120;2023-07-02T13:01:17;26.30;53.10
18218;DHT22;9234;49.344;11.120;2023-07-02T13:03:46;26.60;54.90
18218;DHT22;9234;49.344;11.120;2023-07-02T13:06:15;26.70;53.80
18218;DHT22;9234;49.344;11.120;2023-07-02T13:08:44;26.50;52.60
18218;DHT22;9234;49.344;11.120;2023-07-02T13:11:12;26.40;53.50
18218;DHT22;9234;49.344;11.120;2023-07-02T13:13:42;26.20;54.30
18218;DHT22;9234;49.344;11.120;2023-07-02T13:16:11;26.00;54.80
18218;DHT22;9234;49.344;11.120;2023-07-02T13:18:39;25.80;55.20
18218;DHT22;9234;49.344;11.120;2023-07-02T13:21:07;25.90;55.80
18218;DHT22;9234;49.344;11.120;2023-07-02T13:23:36;26.40;55.30
18218;DHT22;9234;49.344;11.120;2023-07-02T13:26:04;26.80;54.40
18218;DHT22;9234;49.344;11.120;2023-07-02T13:28:32;26.80;52.40
18218;DHT22;9234;49.344;11.120;2023-07-02T13:31:02;26.70;53.90
18218;DHT22;9234;49.344;11.120;2023-07-02T13:33:30;26.90;53.30
18218;DHT22;9234;49.344;11.120;2023-07-02T13:35:59;26.90;52.30
18218;DHT22;9234;49.344;11.120;2023-07-02T13:38:27;26.50;52.40
18218;DHT22;9234;49.344;11.120;2023-07-02T13:40:55;26.20;54.20
18218;DHT22;9234;49.344;11.120;2023-07-02T13:43:24;26.30;54.20
18218;DHT22;9234;49.344;11.120;2023-07-02T13:45:52;26.20;53.90
18218;DHT22;9234;49.344;11.120;2023-07-02T13:48:22;26.00;55.00
18218;DHT22;9234;49.344;11.120;2023-07-02T13:50:54;26.10;54.80
18218;DHT22;9234;49.344;11.120;2023-07-02T13:53:22;26.30;54.50
18218;DHT22;9234;49.344;11.120;2023-07-02T13:55:51;26.50;54.30
18218;DHT22;9234;49.344;11.120;2023-07-02T13:58:19;26.50;54.70
18218;DHT22;9234;49.344;11.120;2023-07-02T14:00:57;26.60;53.40
18218;DHT22;9234;49.344;11.120;2023-07-02T14:03:26;27.30;54.10
18218;DHT22;9234;49.344;11.120;2023-07-02T14:05:54;27.70;52.30
18218;DHT22;9234;49.344;11.120;2023-07-02T14:08:22;27.90;51.70
18218;DHT22;9234;49.344;11.120;2023-07-02T14:10:51;27.90;50.40
18218;DHT22;9234;49.344;11.120;2023-07-02T14:13:19;28.30;51.60
18218;DHT22;9234;49.344;11.120;2023-07-02T14:15:47;28.20;50.00
18218;DHT22;9234;49.344;11.120;2023-07-02T14:18:19;28.10;49.20
18218;DHT22;9234;49.344;11.120;2023-07-02T14:20:48;27.90;51.30
18218;DHT22;9234;49.344;11.120;2023-07-02T14:23:16;28.10;50.50
18218;DHT22;9234;49.344;11.120;2023-07-02T14:25:44;27.80;50.40
18218;DHT22;9234;49.344;11.120;2023-07-02T14:28:13;27.60;51.60
18218;DHT22;9234;49.344;11.120;2023-07-02T14:30:41;27.70;51.20
18218;DHT22;9234;49.344;11.120;2023-07-02T14:33:09;28.00;51.00
18218;DHT22;9234;49.344;11.120;2023-07-02T14:35:39;28.60;50.60
18218;DHT22;9234;49.344;11.120;2023-07-02T14:38:08;28.60;49.00
18218;DHT22;9234;49.344;11.120;2023-07-02T14:40:36;28.50;49.20
18218;DHT22;9234;49.344;11.120;2023-07-02T14:43:04;28.60;48.60
18218;DHT22;9234;49.344;11.120;2023-07-02T14:45:34;28.20;49.90
18218;DHT22;9234;49.344;11.120;2023-07-02T14:48:02;28.00;49.60
18218;DHT22;9234;49.344;11.120;2023-07-02T14:50:31;27.90;50.10
18218;DHT22;9234;49.344;11.120;2023-07-02T14:53:00;28.30;50.40
18218;DHT22;9234;49.344;11.120;2023-07-02T14:55:29;28.60;49.50
18218;DHT22;9234;49.344;11.120;2023-07-02T14:57:57;29.00;48.20
18218;DHT22;9234;49.344;11.120;2023-07-02T15:00:28;29.30;47.80
18218;DHT22;9234;49.344;11.120;2023-07-02T15:02:56;29.50;47.60
18218;DHT22;9234;49.344;11.120;2023-07-02T15:05:25;29.30;47.80
18218;DHT22;9234;49.344;11.120;2023-07-02T15:07:53;29.20;47.30
18218;DHT22;9234;49.344;11.120;2023-07-02T15:10:23;29.10;47.80
18218;DHT22;9234;49.344;11.120;2023-07-02T15:12:51;29.20;46.90
18218;DHT22;9234;49.344;11.120;2023-07-02T15:15:19;29.20;47.60
18218;DHT22;9234;49.344;11.120;2023-07-02T15:17:48;29.30;47.20
18218;DHT22;9234;49.344;11.120;2023-07-02T15:20:16;28.90;47.10
18218;DHT22;9234;49.344;11.120;2023-07-02T15:22:45;28.80;48.50
18218;DHT22;9234;49.344;11.120;2023-07-02T15:25:13;29.10;48.10
18218;DHT22;9234;49.344;11.120;2023-07-02T15:27:43;29.30;48.40
18218;DHT22;9234;49.344;11.120;2023-07-02T15:30:12;29.50;46.70
18218;DHT22;9234;49.344;11.120;2023-07-02T15:32:40;29.50;47.00
18218;DHT22;9234;49.344;11.120;2023-07-02T15:35:08;29.60;46.90
18218;DHT22;9234;49.344;11.120;2023-07-02T15:37:37;30.00;46.30
18218;DHT22;9234;49.344;11.120;2023-07-02T15:40:06;30.40;46.10
18218;DHT22;9234;49.344;11.120;2023-07-02T15:42:37;30.60;44.80